createdAt,value
2022-10-01T00:00:25.898Z,46.3000
2022-10-01T00:01:28.187Z,46.2640
2022-10-01T00:02:28.407Z,46.2660
2022-10-01T00:03:30.588Z,46.2660
2022-10-01T00:04:32.865Z,46.2940
2022-10-01T00:05:35.180Z,46.3040
2022-10-01T00:06:37.441Z,46.3280
2022-10-01T00:07:39.746Z,46.3140
2022-10-01T00:08:42.054Z,46.2180
2022-10-01T00:09:42.270Z,46.1990
2022-10-01T00:10:44.686Z,46.1790
2022-10-01T00:11:46.969Z,46.2020
2022-10-01T00:12:49.299Z,46.2120
2022-10-01T00:13:49.468Z,46.1860
2022-10-01T00:14:51.815Z,46.1210
2022-10-01T00:15:54.166Z,46.1270
2022-10-01T00:16:56.527Z,46.1990
2022-10-01T00:17:58.811Z,46.2420
2022-10-01T00:19:01.099Z,46.2540
2022-10-01T00:20:01.228Z,46.2520
2022-10-01T00:21:03.625Z,46.2800
2022-10-01T00:22:05.926Z,46.2660
2022-10-01T00:23:08.253Z,46.2360
2022-10-01T00:24:10.618Z,46.1770
2022-10-01T00:25:10.835Z,46.1270
2022-10-01T00:26:13.186Z,46.1890
2022-10-01T00:27:15.487Z,46.2020
2022-10-01T00:28:17.894Z,46.1650
2022-10-01T00:29:20.165Z,46.2110
2022-10-01T00:30:20.342Z,46.3060
2022-10-01T00:31:22.813Z,46.2940
2022-10-01T00:32:25.021Z,46.2460
2022-10-01T00:33:27.311Z,46.2420
2022-10-01T00:34:29.647Z,46.2240
2022-10-01T00:35:31.952Z,46.1550
2022-10-01T00:36:32.132Z,46.1710
2022-10-01T00:37:34.460Z,46.2110
2022-10-01T00:38:36.738Z,46.2020
2022-10-01T00:39:38.979Z,46.1610
2022-10-01T00:40:41.259Z,46.2140
2022-10-01T00:41:43.500Z,46.2280
2022-10-01T00:42:45.749Z,46.2080
2022-10-01T00:43:48.022Z,46.1210
2022-10-01T00:44:48.156Z,46.0650
2022-10-01T00:45:50.827Z,46.1150
2022-10-01T00:46:52.800Z,46.0910
2022-10-01T00:47:55.016Z,46.1650
2022-10-01T00:48:57.283Z,46.1710
2022-10-01T00:49:59.696Z,46.1730
2022-10-01T00:50:59.677Z,46.1110
2022-10-01T00:52:01.989Z,46.1450
2022-10-01T00:53:04.207Z,46.1390
2022-10-01T00:54:06.514Z,46.1660
2022-10-01T00:55:08.768Z,46.1720
2022-10-01T00:56:11.049Z,46.1720
2022-10-01T00:57:13.360Z,46.0770
2022-10-01T00:59:24.381Z,46.2870
2022-10-01T01:00:26.557Z,46.2240
2022-10-01T01:01:28.897Z,46.1480
2022-10-01T01:02:31.183Z,46.2000
2022-10-01T01:04:20.708Z,46.2120
2022-10-01T01:05:22.851Z,46.1760
2022-10-01T01:06:25.056Z,46.1500
2022-10-01T01:07:27.214Z,46.1160
2022-10-01T01:08:29.483Z,46.1440
2022-10-01T01:09:31.711Z,46.1380
2022-10-01T01:10:31.811Z,46.1100
2022-10-01T01:11:34.432Z,46.1200
2022-10-01T01:12:36.272Z,46.1260
2022-10-01T01:13:38.501Z,46.1440
2022-10-01T01:14:40.670Z,46.1620
2022-10-01T01:15:42.887Z,46.1840
2022-10-01T01:16:45.002Z,46.1840
2022-10-01T01:17:47.193Z,46.1260
2022-10-01T01:18:49.382Z,46.0750
2022-10-01T01:19:51.581Z,46.0270
2022-10-01T01:20:53.847Z,46.0270
2022-10-01T01:21:56.086Z,46.0010
2022-10-01T01:22:58.328Z,46.0390
2022-10-01T01:24:00.599Z,46.1020
2022-10-01T01:25:02.822Z,46.1220
2022-10-01T01:26:02.927Z,46.1040
2022-10-01T01:27:05.189Z,46.0700
2022-10-01T01:28:07.475Z,46.0450
2022-10-01T01:29:09.748Z,46.0270
2022-10-01T01:30:11.981Z,46.0450
2022-10-01T01:31:14.315Z,46.0210
2022-10-01T01:32:16.499Z,45.9830
2022-10-01T01:33:18.730Z,46.0130
2022-10-01T01:34:21.016Z,45.9770
2022-10-01T01:35:21.061Z,45.9950
2022-10-01T01:36:23.341Z,46.0230
2022-10-01T01:37:25.601Z,46.0670
2022-10-01T01:38:27.896Z,46.0670
2022-10-01T01:39:30.173Z,46.0700
2022-10-01T01:40:32.454Z,46.0570
2022-10-01T01:41:35.129Z,46.1040
2022-10-01T01:42:36.963Z,46.0050
2022-10-01T01:43:37.042Z,45.9730
2022-10-01T01:44:39.295Z,45.9470
2022-10-01T01:45:41.583Z,45.9730
2022-10-01T01:46:43.873Z,45.9490
2022-10-01T01:47:46.186Z,45.9430
2022-10-01T01:48:48.517Z,45.9610
2022-10-01T01:49:50.800Z,46.0070
2022-10-01T01:50:50.890Z,46.1060
2022-10-01T01:51:53.126Z,46.1360
2022-10-01T01:52:55.367Z,46.1120
2022-10-01T01:53:57.598Z,46.0530
2022-10-01T01:54:59.866Z,45.9890
2022-10-01T01:56:02.065Z,45.9650
2022-10-01T01:57:04.308Z,46.0170
2022-10-01T01:58:06.604Z,46.0050
2022-10-01T01:59:08.945Z,45.9870
2022-10-01T02:00:09.156Z,46.0170
2022-10-01T02:01:11.449Z,46.0620
2022-10-01T02:02:13.861Z,46.1320
2022-10-01T02:03:16.014Z,46.0500
2022-10-01T02:04:18.274Z,45.9810
2022-10-01T02:05:20.525Z,45.9610
2022-10-01T02:06:22.758Z,45.9370
2022-10-01T02:07:25.052Z,45.9370
2022-10-01T02:08:28.334Z,45.9880
2022-10-01T02:09:31.732Z,46.0180
2022-10-01T02:10:33.986Z,46.0220
2022-10-01T02:11:36.529Z,46.0400
2022-10-01T02:12:38.516Z,45.9780
2022-10-01T02:13:38.656Z,45.9570
2022-10-01T02:14:40.908Z,45.9910
2022-10-01T02:15:43.273Z,45.9590
2022-10-01T02:16:45.525Z,45.9570
2022-10-01T02:17:47.800Z,45.9630
2022-10-01T02:18:50.104Z,45.9570
2022-10-01T02:19:52.432Z,45.8560
2022-10-01T02:20:52.536Z,45.9130
2022-10-01T02:21:54.799Z,45.9510
2022-10-01T02:22:57.100Z,45.9290
2022-10-01T02:23:59.411Z,45.9370
2022-10-01T02:25:01.700Z,45.9010
2022-10-01T02:26:04.025Z,45.9290
2022-10-01T02:27:06.291Z,45.9090
2022-10-01T02:28:06.486Z,45.8950
2022-10-01T02:29:08.746Z,45.9070
2022-10-01T02:30:11.071Z,45.9090
2022-10-01T02:31:13.487Z,45.9530
2022-10-01T02:32:15.722Z,45.9170
2022-10-01T02:33:17.979Z,45.9430
2022-10-01T02:34:20.285Z,45.9430
2022-10-01T02:35:20.386Z,46.0120
2022-10-01T02:36:22.662Z,45.9290
2022-10-01T02:37:24.930Z,45.8690
2022-10-01T02:38:27.232Z,45.8790
2022-10-01T02:39:29.535Z,45.8910
2022-10-01T02:40:31.833Z,45.8910
2022-10-01T02:41:32.339Z,45.8210
2022-10-01T02:42:34.289Z,45.7640
2022-10-01T02:43:40.684Z,45.7830
2022-10-01T02:44:38.980Z,45.7970
2022-10-01T02:45:39.227Z,45.8370
2022-10-01T02:46:41.577Z,45.8950
2022-10-01T02:47:43.864Z,45.8770
2022-10-01T02:48:46.210Z,45.8550
2022-10-01T02:49:48.537Z,45.8770
2022-10-01T02:50:50.835Z,45.9590
2022-10-01T02:51:51.028Z,45.9570
2022-10-01T02:52:53.367Z,45.9190
2022-10-01T02:53:55.683Z,45.9660
2022-10-01T02:54:58.010Z,45.9190
2022-10-01T02:56:00.341Z,45.9070
2022-10-01T02:57:02.720Z,45.8510
2022-10-01T02:58:02.829Z,45.8950
2022-10-01T02:59:05.151Z,45.8290
2022-10-01T03:00:07.467Z,45.8390
2022-10-01T03:01:09.905Z,45.8370
2022-10-01T03:02:12.249Z,45.7990
2022-10-01T03:03:14.415Z,45.7930
2022-10-01T03:04:14.586Z,45.8830
2022-10-01T03:05:16.916Z,45.9230
2022-10-01T03:06:19.278Z,45.8970
2022-10-01T03:07:21.565Z,45.8770
2022-10-01T03:08:23.866Z,45.8690
2022-10-01T03:09:26.155Z,45.8890
2022-10-01T03:10:26.352Z,45.8630
2022-10-01T03:11:28.738Z,45.9250
2022-10-01T03:12:31.097Z,45.9010
2022-10-01T03:13:33.434Z,45.8790
2022-10-01T03:14:35.777Z,45.9030
2022-10-01T03:15:36.020Z,45.8850
2022-10-01T03:16:38.312Z,45.8510
2022-10-01T03:17:40.688Z,45.8370
2022-10-01T03:18:43.024Z,45.8450
2022-10-01T03:19:43.336Z,45.8910
2022-10-01T03:20:45.551Z,45.8430
2022-10-01T03:21:47.918Z,45.8290
2022-10-01T03:22:50.273Z,45.8730
2022-10-01T03:23:52.619Z,45.8890
2022-10-01T03:24:52.796Z,45.9090
2022-10-01T03:25:55.098Z,45.9030
2022-10-01T03:26:57.401Z,45.9520
2022-10-01T03:27:59.858Z,45.9520
2022-10-01T03:29:02.111Z,45.8970
2022-10-01T03:30:02.292Z,45.9090
2022-10-01T03:31:04.657Z,45.8690
2022-10-01T03:32:06.917Z,45.8330
2022-10-01T03:33:09.285Z,45.9400
2022-10-01T03:34:11.583Z,45.9190
2022-10-01T03:35:13.916Z,45.9280
2022-10-01T03:36:14.110Z,45.9010
2022-10-01T03:37:16.454Z,45.9140
2022-10-01T03:38:18.781Z,45.9080
2022-10-01T03:39:21.098Z,45.9400
2022-10-01T03:40:23.434Z,45.8950
2022-10-01T03:41:25.782Z,45.9080
2022-10-01T03:42:26.001Z,45.8770
2022-10-01T03:43:28.397Z,45.7930
2022-10-01T03:44:30.701Z,45.7710
2022-10-01T03:45:33.078Z,45.8050
2022-10-01T03:46:35.367Z,45.8890
2022-10-01T03:47:35.520Z,45.8670
2022-10-01T03:48:37.875Z,45.8950
2022-10-01T03:49:40.130Z,45.8770
2022-10-01T03:50:42.429Z,45.8170
2022-10-01T03:51:44.724Z,45.8890
2022-10-01T03:52:47.003Z,45.9340
2022-10-01T03:53:47.147Z,45.9340
2022-10-01T03:54:49.405Z,45.9280
2022-10-01T03:55:51.672Z,45.9200
2022-10-01T03:56:53.985Z,45.9520
2022-10-01T03:57:56.375Z,45.8630
2022-10-01T03:58:56.584Z,45.8690
2022-10-01T03:59:58.847Z,45.8970
2022-10-01T04:01:01.210Z,45.9520
2022-10-01T04:02:03.717Z,45.8630
2022-10-01T04:03:05.935Z,45.8770
2022-10-01T04:04:08.303Z,45.9460
2022-10-01T04:05:08.472Z,45.9520
2022-10-01T04:06:10.831Z,45.9030
2022-10-01T04:07:13.195Z,45.8770
2022-10-01T04:08:15.541Z,45.8690
2022-10-01T04:09:17.923Z,45.8690
2022-10-01T04:10:18.091Z,45.8150
2022-10-01T04:11:20.434Z,45.9020
2022-10-01T04:12:22.790Z,45.9480
2022-10-01T04:13:25.121Z,45.9580
2022-10-01T04:14:27.499Z,45.9680
2022-10-01T04:15:27.651Z,46.0020
2022-10-01T04:16:30.061Z,46.0260
2022-10-01T04:17:32.342Z,45.9940
2022-10-01T04:18:34.713Z,46.0140
2022-10-01T04:19:37.095Z,45.9860
2022-10-01T04:20:37.246Z,46.0020
2022-10-01T04:21:39.544Z,45.9700
2022-10-01T04:22:41.886Z,45.9740
2022-10-01T04:23:44.256Z,45.9680
2022-10-01T04:24:46.582Z,45.9540
2022-10-01T04:25:46.758Z,45.9340
2022-10-01T04:26:49.052Z,45.9180
2022-10-01T04:27:51.413Z,45.9820
2022-10-01T04:28:54.323Z,46.0320
2022-10-01T04:29:56.095Z,46.0140
2022-10-01T04:30:56.268Z,46.0020
2022-10-01T04:31:58.670Z,46.0080
2022-10-01T04:33:00.930Z,46.0440
2022-10-01T04:34:03.296Z,45.9940
2022-10-01T04:35:05.652Z,46.0080
2022-10-01T04:36:05.840Z,45.9820
2022-10-01T04:37:08.198Z,45.9760
2022-10-01T04:38:10.502Z,46.0020
2022-10-01T04:39:12.826Z,46.0100
2022-10-01T04:40:15.177Z,46.0540
2022-10-01T04:41:15.323Z,45.9460
2022-10-01T04:42:17.636Z,45.9880
2022-10-01T04:43:19.958Z,45.9640
2022-10-01T04:44:22.274Z,45.9520
2022-10-01T04:45:24.638Z,46.0220
2022-10-01T04:46:27.001Z,45.9640
2022-10-01T04:47:27.100Z,45.9760
2022-10-01T04:48:29.422Z,45.9740
2022-10-01T04:49:31.752Z,45.9740
2022-10-01T04:50:34.081Z,45.9920
2022-10-01T04:51:36.685Z,46.0160
2022-10-01T04:52:38.738Z,46.0440
2022-10-01T04:53:38.929Z,45.9740
2022-10-01T04:54:41.251Z,45.9220
2022-10-01T04:55:45.736Z,45.9340
2022-10-01T04:56:05.058Z,45.9140
2022-10-01T04:58:05.427Z,45.9080
2022-10-01T04:59:09.899Z,45.9580
2022-10-01T05:00:12.236Z,45.9680
2022-10-01T05:01:14.666Z,45.9740
2022-10-01T05:02:16.945Z,45.9460
2022-10-01T05:03:17.071Z,45.9220
2022-10-01T05:04:19.410Z,45.8840
2022-10-01T05:05:21.727Z,45.9980
2022-10-01T05:06:24.089Z,46.0910
2022-10-01T05:07:26.334Z,46.0790
2022-10-01T05:08:28.650Z,46.0600
2022-10-01T05:09:28.788Z,46.0910
2022-10-01T05:10:31.058Z,46.1490
2022-10-01T05:11:33.582Z,46.0830
2022-10-01T05:12:35.601Z,46.1170
2022-10-01T05:13:37.854Z,46.1230
2022-10-01T05:14:40.124Z,46.1170
2022-10-01T05:15:42.394Z,46.1810
2022-10-01T05:16:42.633Z,46.2430
2022-10-01T05:17:44.772Z,46.2090
2022-10-01T05:18:47.046Z,46.2090
2022-10-01T05:19:49.279Z,46.2150
2022-10-01T05:20:51.556Z,46.1750
2022-10-01T05:21:53.838Z,46.2180
2022-10-01T05:22:56.103Z,46.2800
2022-10-01T05:23:58.344Z,46.2860
2022-10-01T05:25:00.658Z,46.2680
2022-10-01T05:26:00.786Z,46.2920
2022-10-01T05:27:03.104Z,46.2390
2022-10-01T05:28:05.670Z,46.2860
2022-10-01T05:29:07.711Z,46.2460
2022-10-01T05:30:10.019Z,46.2860
2022-10-01T05:31:12.357Z,46.3040
2022-10-01T05:32:12.455Z,46.3300
2022-10-01T05:33:14.609Z,46.3520
2022-10-01T05:34:16.857Z,46.3300
2022-10-01T05:35:19.073Z,46.3240
2022-10-01T05:36:21.259Z,46.3180
2022-10-01T05:37:23.541Z,46.3260
2022-10-01T05:38:25.734Z,46.2960
2022-10-01T05:39:27.981Z,46.2210
2022-10-01T05:40:30.299Z,46.2520
2022-10-01T05:41:32.978Z,46.1810
2022-10-01T05:42:32.758Z,46.1250
2022-10-01T05:43:35.015Z,46.2110
2022-10-01T05:44:37.306Z,46.2180
2022-10-01T05:45:39.601Z,46.2430
2022-10-01T05:46:41.836Z,46.2430
2022-10-01T05:47:44.170Z,46.2680
2022-10-01T05:48:46.424Z,46.2740
2022-10-01T05:49:46.589Z,46.2920
2022-10-01T05:50:48.910Z,46.2980
2022-10-01T05:51:51.174Z,46.2380
2022-10-01T05:52:53.498Z,46.2430
2022-10-01T05:53:55.767Z,45.8020
2022-10-01T05:54:58.086Z,45.9080
2022-10-01T05:56:00.348Z,45.9820
2022-10-01T05:57:00.513Z,46.1010
2022-10-01T05:58:02.835Z,46.1010
2022-10-01T05:59:05.096Z,46.0790
2022-10-01T06:00:07.363Z,46.0260
2022-10-01T06:01:09.578Z,46.0690
2022-10-01T06:02:11.934Z,46.0340
2022-10-01T06:03:14.210Z,45.9980
2022-10-01T06:04:14.269Z,45.9920
2022-10-01T06:05:16.528Z,46.0440
2022-10-01T06:06:18.828Z,45.9860
2022-10-01T06:07:21.104Z,45.9540
2022-10-01T06:08:23.449Z,45.9580
2022-10-01T06:09:25.747Z,45.9700
2022-10-01T06:10:28.221Z,45.9970
2022-10-01T06:11:28.252Z,45.9850
2022-10-01T06:12:30.602Z,46.0160
2022-10-01T06:13:32.969Z,45.9060
2022-10-01T06:14:35.268Z,45.8540
2022-10-01T06:15:37.529Z,45.8500
2022-10-01T06:16:39.965Z,45.8140
2022-10-01T06:17:40.037Z,45.7810
2022-10-01T06:18:42.345Z,45.7810
2022-10-01T06:19:44.619Z,45.7750
2022-10-01T06:20:46.831Z,45.7630
2022-10-01T06:21:49.072Z,45.7910
2022-10-01T06:22:51.364Z,45.8490
2022-10-01T06:23:53.678Z,45.8030
2022-10-01T06:24:56.722Z,45.8720
2022-10-01T06:25:56.056Z,45.9580
2022-10-01T06:26:58.396Z,45.9880
2022-10-01T06:28:00.903Z,46.0200
2022-10-01T06:29:03.063Z,46.0200
2022-10-01T06:30:05.376Z,46.0320
2022-10-01T06:31:05.570Z,46.1350
2022-10-01T06:32:07.906Z,46.1250
2022-10-01T06:33:10.223Z,46.1250
2022-10-01T06:34:12.583Z,46.1490
2022-10-01T06:35:14.832Z,46.2240
2022-10-01T06:36:17.217Z,46.2380
2022-10-01T06:37:19.406Z,46.2680
2022-10-01T06:38:21.646Z,46.3140
2022-10-01T06:39:23.888Z,46.2960
2022-10-01T06:40:26.164Z,46.3040
2022-10-01T06:41:28.395Z,46.3120
2022-10-01T06:42:30.669Z,46.3440
2022-10-01T06:43:32.920Z,46.2840
2022-10-01T06:44:35.211Z,46.2920
2022-10-01T06:45:35.293Z,46.3240
2022-10-01T06:46:37.514Z,46.3540
2022-10-01T06:48:44.288Z,46.6080
2022-10-01T06:49:47.814Z,46.4930
2022-10-01T06:50:48.704Z,46.4230
2022-10-01T06:51:50.945Z,46.4170
2022-10-01T06:52:53.215Z,46.5070
2022-10-01T06:53:55.471Z,46.5320
2022-10-01T06:54:57.776Z,46.4410
2022-10-01T06:56:00.023Z,46.4590
2022-10-01T06:57:00.162Z,46.4730
2022-10-01T06:58:02.525Z,46.4410
2022-10-01T06:59:04.758Z,46.5030
2022-10-01T07:00:06.992Z,46.5380
2022-10-01T07:01:09.222Z,46.5620
2022-10-01T07:02:11.417Z,46.5800
2022-10-01T07:03:13.574Z,46.6180
2022-10-01T07:04:15.794Z,46.5480
2022-10-01T07:05:18.077Z,46.4170
2022-10-01T07:06:20.233Z,46.4130
2022-10-01T07:07:24.373Z,46.4470
2022-10-01T07:08:24.684Z,46.5320
2022-10-01T07:09:24.773Z,46.4910
2022-10-01T07:10:27.028Z,46.4790
2022-10-01T07:11:29.227Z,46.5160
2022-10-01T07:12:31.452Z,46.5040
2022-10-01T07:13:33.741Z,46.4170
2022-10-01T07:14:36.003Z,46.4910
2022-10-01T07:15:38.293Z,46.5340
2022-10-01T07:16:40.580Z,46.5900
2022-10-01T07:17:42.809Z,46.5900
2022-10-01T07:18:42.955Z,46.6020
2022-10-01T07:19:45.167Z,46.6280
2022-10-01T07:20:47.496Z,46.6200
2022-10-01T07:21:49.683Z,46.6590
2022-10-01T07:22:52.003Z,46.6410
2022-10-01T07:23:54.193Z,46.6550
2022-10-01T07:24:55.268Z,46.6610
2022-10-01T07:25:56.554Z,46.6200
2022-10-01T07:26:58.794Z,46.6020
2022-10-01T07:28:01.155Z,46.5000
2022-10-01T07:29:03.344Z,46.5280
2022-10-01T07:30:05.677Z,46.5220
2022-10-01T07:31:05.840Z,46.5160
2022-10-01T07:32:08.140Z,46.4850
2022-10-01T07:33:10.393Z,46.5440
2022-10-01T07:34:12.696Z,46.5740
2022-10-01T07:35:15.003Z,46.5880
2022-10-01T07:36:17.344Z,46.5340
2022-10-01T07:37:17.470Z,46.6020
2022-10-01T07:38:19.779Z,46.6750
2022-10-01T07:39:22.097Z,46.5960
2022-10-01T07:40:24.527Z,46.5840
2022-10-01T07:41:26.732Z,46.7230
2022-10-01T07:42:28.950Z,46.7620
2022-10-01T07:43:31.248Z,46.8450
2022-10-01T07:44:31.405Z,46.8550
2022-10-01T07:45:33.801Z,46.8670
2022-10-01T07:46:36.087Z,46.8990
2022-10-01T07:47:38.359Z,46.8950
2022-10-01T07:48:40.697Z,46.9010
2022-10-01T07:49:42.967Z,46.8890
2022-10-01T07:50:43.105Z,46.9260
2022-10-01T07:51:45.378Z,47.0390
2022-10-01T07:52:47.619Z,47.0160
2022-10-01T07:53:49.873Z,46.9980
2022-10-01T07:54:52.127Z,47.0670
2022-10-01T07:55:54.379Z,47.0750
2022-10-01T07:56:56.654Z,47.1070
2022-10-01T07:57:58.833Z,47.1010
2022-10-01T07:59:01.099Z,47.1820
2022-10-01T08:00:03.295Z,47.1010
2022-10-01T08:01:05.540Z,47.0330
2022-10-01T08:02:07.795Z,47.0470
2022-10-01T08:03:10.022Z,47.0060
2022-10-01T08:04:12.199Z,46.9480
2022-10-01T08:05:14.438Z,46.8710
2022-10-01T08:06:16.656Z,45.8770
2022-10-01T08:07:18.888Z,45.7530
2022-10-01T08:08:21.044Z,46.1650
2022-10-01T08:09:23.344Z,46.2910
2022-10-01T08:10:25.643Z,46.4170
2022-10-01T08:11:40.355Z,46.5660
2022-10-01T08:12:43.155Z,46.6140
2022-10-01T08:13:43.228Z,46.6060
2022-10-01T08:14:45.491Z,46.5720
2022-10-01T08:15:49.877Z,46.5560
2022-10-01T08:16:45.840Z,46.5620
2022-10-01T08:17:47.916Z,46.5560
2022-10-01T08:18:50.090Z,46.5070
2022-10-01T08:19:52.315Z,46.4590
2022-10-01T08:20:54.533Z,46.4470
2022-10-01T08:21:56.738Z,46.3600
2022-10-01T08:22:58.984Z,46.4350
2022-10-01T08:23:59.060Z,46.3520
2022-10-01T08:25:01.353Z,46.3020
2022-10-01T08:26:03.608Z,46.2960
2022-10-01T08:27:05.868Z,46.2280
2022-10-01T08:28:08.246Z,46.2210
2022-10-01T08:29:14.832Z,46.2290
2022-10-01T08:30:12.638Z,46.2800
2022-10-01T08:31:14.898Z,46.2500
2022-10-01T08:32:17.182Z,46.1570
2022-10-01T08:33:17.336Z,45.9760
2022-10-01T08:34:19.564Z,45.8290
2022-10-01T08:35:21.854Z,45.6280
2022-10-01T08:36:24.159Z,45.7050
2022-10-01T08:37:26.408Z,45.5160
2022-10-01T08:38:28.738Z,45.2560
2022-10-01T08:39:30.937Z,45.4940
2022-10-01T08:40:33.162Z,45.7850
2022-10-01T08:41:33.265Z,45.8720
2022-10-01T08:42:35.465Z,45.7870
2022-10-01T08:43:37.751Z,45.7910
2022-10-01T08:44:39.979Z,45.7870
2022-10-01T08:45:42.322Z,45.7850
2022-10-01T08:46:44.502Z,45.8150
2022-10-01T08:47:46.761Z,45.8090
2022-10-01T08:48:52.420Z,45.8400
2022-10-01T08:49:51.283Z,45.8840
2022-10-01T08:50:51.411Z,45.8130
2022-10-01T08:51:53.680Z,45.8210
2022-10-01T08:52:55.907Z,45.8800
2022-10-01T08:53:58.199Z,45.9400
2022-10-01T08:55:00.434Z,45.9180
2022-10-01T08:56:02.640Z,45.8740
2022-10-01T08:57:04.858Z,45.8090
2022-10-01T08:58:07.119Z,45.8210
2022-10-01T08:59:09.394Z,45.8150
2022-10-01T09:00:09.681Z,45.8720
2022-10-01T09:01:11.854Z,45.9280
2022-10-01T09:02:14.105Z,45.9640
2022-10-01T09:03:16.369Z,45.9580
2022-10-01T09:04:18.681Z,46.2430
2022-10-01T09:05:20.895Z,46.2680
2022-10-01T09:06:23.155Z,46.4590
2022-10-01T09:07:25.384Z,46.5600
2022-10-01T09:08:27.628Z,46.5850
2022-10-01T09:09:27.745Z,46.6980
2022-10-01T09:10:30.058Z,46.9150
2022-10-01T09:11:32.730Z,46.8130
2022-10-01T09:12:34.545Z,46.7880
2022-10-01T09:13:36.824Z,46.8340
2022-10-01T09:14:39.077Z,46.8740
2022-10-01T09:15:41.344Z,46.9490
2022-10-01T09:16:43.677Z,46.9690
2022-10-01T09:17:43.732Z,46.9530
2022-10-01T09:18:46.038Z,46.9490
2022-10-01T09:19:48.322Z,46.9030
2022-10-01T09:20:50.604Z,47.0380
2022-10-01T09:21:52.908Z,47.0810
2022-10-01T09:22:55.230Z,47.1310
2022-10-01T09:23:57.509Z,47.1490
2022-10-01T09:24:57.692Z,47.1090
2022-10-01T09:25:59.967Z,47.1670
2022-10-01T09:27:02.212Z,47.1190
2022-10-01T09:28:04.506Z,47.0870
2022-10-01T09:29:06.750Z,47.2300
2022-10-01T09:30:09.044Z,47.2120
2022-10-01T09:31:11.308Z,47.1940
2022-10-01T09:32:11.371Z,47.1650
2022-10-01T09:33:13.667Z,47.1430
2022-10-01T09:34:15.952Z,47.1250
2022-10-01T09:35:18.176Z,47.0930
2022-10-01T09:36:20.461Z,47.0620
2022-10-01T09:37:22.673Z,47.0440
2022-10-01T09:38:24.956Z,47.0440
2022-10-01T09:39:27.314Z,47.0500
2022-10-01T09:40:29.623Z,47.0440
2022-10-01T09:41:29.783Z,47.0120
2022-10-01T09:42:32.082Z,47.0580
2022-10-01T09:43:34.389Z,47.0380
2022-10-01T09:44:36.711Z,47.0620
2022-10-01T09:45:39.143Z,47.0380
2022-10-01T09:46:41.338Z,47.0810
2022-10-01T09:47:41.517Z,47.0300
2022-10-01T09:48:43.869Z,47.0380
2022-10-01T09:49:46.187Z,47.0560
2022-10-01T09:50:48.547Z,47.0500
2022-10-01T09:51:50.746Z,47.0380
2022-10-01T09:52:50.829Z,47.0740
2022-10-01T09:53:53.133Z,47.0680
2022-10-01T09:54:55.325Z,47.0300
2022-10-01T09:55:57.612Z,47.0460
2022-10-01T09:56:59.899Z,47.0640
2022-10-01T09:58:02.053Z,47.0440
2022-10-01T09:59:04.279Z,47.0000
2022-10-01T10:00:06.580Z,46.9880
2022-10-01T10:01:08.787Z,47.0120
2022-10-01T10:02:11.121Z,47.0180
2022-10-01T10:03:11.162Z,47.0180
2022-10-01T10:04:17.920Z,46.9550
2022-10-01T10:05:15.531Z,47.1090
2022-10-01T10:06:17.763Z,47.1210
2022-10-01T10:07:19.956Z,47.1110
2022-10-01T10:08:22.211Z,47.1210
2022-10-01T10:09:24.390Z,47.2020
2022-10-01T10:10:26.591Z,47.1190
2022-10-01T10:11:28.853Z,47.0520
2022-10-01T10:12:31.029Z,47.1800
2022-10-01T10:13:33.269Z,47.2120
2022-10-01T10:14:35.563Z,47.2930
2022-10-01T10:15:37.895Z,47.2670
2022-10-01T10:16:38.553Z,47.3420
2022-10-01T10:17:40.355Z,47.3920
2022-10-01T10:18:42.650Z,47.4610
2022-10-01T10:19:44.955Z,47.4550
2022-10-01T10:20:47.240Z,47.4390
2022-10-01T10:21:49.500Z,47.4980
2022-10-01T10:22:49.630Z,47.4430
2022-10-01T10:23:51.968Z,47.4860
2022-10-01T10:24:54.265Z,47.5180
2022-10-01T10:25:56.552Z,47.4490
2022-10-01T10:26:01.032Z,47.4370
2022-10-01T10:27:03.181Z,47.5380
2022-10-01T10:28:03.346Z,47.5950
2022-10-01T10:29:05.549Z,47.6240
2022-10-01T10:30:07.840Z,47.6680
2022-10-01T10:31:10.125Z,47.7350
2022-10-01T10:32:12.375Z,47.7510
2022-10-01T10:33:14.592Z,47.7450
2022-10-01T10:34:16.843Z,47.7390
2022-10-01T10:35:19.113Z,47.7490
2022-10-01T10:36:21.337Z,47.8380
2022-10-01T10:37:21.493Z,47.8260
2022-10-01T10:38:23.692Z,47.7150
2022-10-01T10:40:29.464Z,47.8020
2022-10-01T10:41:27.189Z,47.7980
2022-10-01T10:43:30.527Z,47.7270
2022-10-01T10:44:32.707Z,47.7800
2022-10-01T10:45:34.915Z,47.8620
2022-10-01T10:46:37.192Z,47.8190
2022-10-01T10:47:39.388Z,47.7550
2022-10-01T10:48:41.559Z,47.7610
2022-10-01T10:49:43.714Z,47.7980
2022-10-01T10:50:45.925Z,47.7610
2022-10-01T10:51:48.056Z,47.6520
2022-10-01T10:52:50.169Z,47.6420
2022-10-01T10:53:52.369Z,47.6700
2022-10-01T10:54:54.545Z,47.7150
2022-10-01T10:55:56.865Z,47.7080
2022-10-01T10:56:59.118Z,47.6330
2022-10-01T10:58:02.189Z,47.6480
2022-10-01T10:59:01.581Z,47.6800
2022-10-01T11:00:03.818Z,47.6010
2022-10-01T11:01:06.192Z,47.5670
2022-10-01T11:02:08.530Z,47.4670
2022-10-01T11:03:10.635Z,47.5460
2022-10-01T11:04:12.955Z,47.5260
2022-10-01T11:05:13.127Z,47.5180
2022-10-01T11:06:15.354Z,47.4960
2022-10-01T11:07:17.675Z,47.4900
2022-10-01T11:08:19.943Z,47.5870
2022-10-01T11:09:22.207Z,47.6050
2022-10-01T11:10:24.398Z,47.6420
2022-10-01T11:11:26.608Z,47.6420
2022-10-01T11:12:28.830Z,47.6050
2022-10-01T11:13:31.081Z,47.6290
2022-10-01T11:14:31.201Z,47.6240
2022-10-01T11:15:33.477Z,47.6110
2022-10-01T11:16:36.222Z,47.5380
2022-10-01T11:17:37.896Z,47.4680
2022-10-01T11:18:40.172Z,47.4650
2022-10-01T11:19:42.568Z,47.4840
2022-10-01T11:20:44.755Z,47.5300
2022-10-01T11:21:47.036Z,47.5060
2022-10-01T11:22:47.166Z,47.4780
2022-10-01T11:23:49.422Z,47.4370
2022-10-01T11:24:51.727Z,47.4650
2022-10-01T11:25:53.955Z,47.3760
2022-10-01T11:26:56.297Z,47.4270
2022-10-01T11:27:58.622Z,47.4230
2022-10-01T11:29:00.751Z,47.4370
2022-10-01T11:30:03.395Z,47.4550
2022-10-01T11:31:03.186Z,47.3340
2022-10-01T11:32:05.378Z,47.3300
2022-10-01T11:33:07.677Z,47.3580
2022-10-01T11:34:09.959Z,47.3640
2022-10-01T11:35:12.247Z,47.3280
2022-10-01T11:36:14.501Z,47.3680
2022-10-01T11:37:16.858Z,47.4050
2022-10-01T11:38:19.062Z,47.3980
2022-10-01T11:39:19.193Z,47.4050
2022-10-01T11:40:21.497Z,47.3800
2022-10-01T11:41:23.791Z,47.4150
2022-10-01T11:42:26.041Z,47.4230
2022-10-01T11:43:28.319Z,47.3800
2022-10-01T11:44:30.572Z,47.3500
2022-10-01T11:45:32.880Z,47.3230
2022-10-01T11:46:35.506Z,47.3800
2022-10-01T11:47:35.175Z,47.3680
2022-10-01T11:48:37.349Z,47.3170
2022-10-01T11:49:39.533Z,47.3050
2022-10-01T11:50:41.655Z,47.3520
2022-10-01T11:51:43.787Z,47.3520
2022-10-01T11:52:45.951Z,47.3520
2022-10-01T11:53:48.160Z,47.3420
2022-10-01T11:54:54.255Z,47.3230
2022-10-01T11:55:52.576Z,47.3230
2022-10-01T11:56:54.757Z,47.2810
2022-10-01T11:57:57.012Z,47.2420
2022-10-01T11:58:59.292Z,47.2420
2022-10-01T12:00:01.612Z,47.2060
2022-10-01T12:01:03.918Z,47.2180
2022-10-01T12:02:04.168Z,47.2490
2022-10-01T12:03:06.355Z,47.2420
2022-10-01T12:04:08.631Z,47.2590
2022-10-01T12:05:10.975Z,47.1940
2022-10-01T12:06:13.193Z,47.1740
2022-10-01T12:07:15.420Z,47.1050
2022-10-01T12:08:17.709Z,47.1310
2022-10-01T12:09:20.017Z,47.1840
2022-10-01T12:10:20.147Z,47.2080
2022-10-01T12:11:22.382Z,47.1900
2022-10-01T12:12:24.673Z,47.2480
2022-10-01T12:13:26.941Z,47.2020
2022-10-01T12:14:29.181Z,47.1190
2022-10-01T12:15:31.432Z,47.1310
2022-10-01T12:16:31.784Z,47.0930
2022-10-01T12:17:33.882Z,47.0870
2022-10-01T12:18:33.990Z,47.1110
2022-10-01T12:19:36.272Z,47.1450
2022-10-01T12:20:38.529Z,47.1250
2022-10-01T12:21:40.895Z,47.0740
2022-10-01T12:22:43.105Z,47.0680
2022-10-01T12:23:45.390Z,47.0380
2022-10-01T12:24:45.543Z,47.0680
2022-10-01T12:25:47.799Z,47.0440
2022-10-01T12:26:50.123Z,47.0300
2022-10-01T12:27:52.452Z,47.0500
2022-10-01T12:29:00.000Z,47.0740
2022-10-01T12:29:56.970Z,47.1710
2022-10-01T12:30:59.288Z,47.1430
2022-10-01T12:31:59.376Z,47.1090
2022-10-01T12:33:01.561Z,47.0440
2022-10-01T12:34:03.877Z,47.1030